Time;durP1;ratioP1;P1;durP2;ratioP2;P2;SDS_P1;SDS_P2;PMS_P1;PMS_P2;Temp;Humidity;BMP_temperature;BMP_pressure;BME280_temperature;BME280_humidity;BME280_pressure;Samples;Min_cycle;Max_cycle;Signal;HPM_P1;HPM_P2
2022/05/25 00:00:56;;;;;;;9.40;7.97;;;;;;;;;;5074322;28;20268;-50
2022/05/25 00:03:22;;;;;;;8.87;8.13;;;;;;;;;;5074116;28;20199;-50
2022/05/25 00:05:48;;;;;;;8.00;7.20;;;;;;;;;;5074139;28;20203;-50
2022/05/25 00:08:14;;;;;;;8.20;7.60;;;;;;;;;;5074433;28;20222;-51
2022/05/25 00:10:41;;;;;;;8.50;7.70;;;;;;;;;;5073754;28;20202;-50
2022/05/25 00:13:08;;;;;;;8.33;7.70;;;;;;;;;;5074052;28;20293;-51
2022/05/25 00:15:35;;;;;;;9.50;7.93;;;;;;;;;;5072023;28;20242;-51
2022/05/25 00:18:01;;;;;;;7.87;7.17;;;;;;;;;;5074152;28;20223;-50
2022/05/25 00:20:27;;;;;;;7.87;7.27;;;;;;;;;;5072537;28;20199;-50
2022/05/25 00:22:54;;;;;;;7.50;6.90;;;;;;;;;;5073867;28;20290;-51
2022/05/25 00:25:21;;;;;;;8.50;7.70;;;;;;;;;;5073403;28;20208;-53
2022/05/25 00:27:47;;;;;;;9.47;8.57;;;;;;;;;;5073836;28;20237;-51
2022/05/25 00:30:15;;;;;;;9.43;8.63;;;;;;;;;;5073457;28;20613;-52
2022/05/25 00:32:42;;;;;;;9.37;8.50;;;;;;;;;;5073639;28;20204;-52
2022/05/25 00:35:09;;;;;;;9.20;8.27;;;;;;;;;;5073727;28;20612;-52
2022/05/25 00:37:35;;;;;;;8.83;8.13;;;;;;;;;;5073574;28;20314;-52
2022/05/25 00:40:01;;;;;;;8.47;7.70;;;;;;;;;;5073752;28;20199;-52
2022/05/25 00:42:27;;;;;;;8.57;7.87;;;;;;;;;;5073759;28;20265;-52
2022/05/25 00:44:53;;;;;;;8.90;8.20;;;;;;;;;;5073301;28;20195;-52
2022/05/25 00:47:23;;;;;;;8.13;7.43;;;;;;;;;;5073520;28;20199;-53
2022/05/25 00:49:49;;;;;;;8.80;8.07;;;;;;;;;;5073487;28;20207;-52
2022/05/25 00:52:16;;;;;;;7.87;7.17;;;;;;;;;;5073551;28;20218;-52
2022/05/25 00:54:43;;;;;;;8.30;7.60;;;;;;;;;;5073397;28;20215;-52
2022/05/25 00:57:12;;;;;;;8.23;7.53;;;;;;;;;;5073258;28;20215;-52
2022/05/25 00:59:42;;;;;;;9.43;8.53;;;;;;;;;;5073111;28;20198;-52
2022/05/25 01:02:08;;;;;;;8.90;8.10;;;;;;;;;;5071599;28;20192;-52
2022/05/25 01:04:35;;;;;;;9.80;8.90;;;;;;;;;;5071421;28;20252;-52
2022/05/25 01:07:08;;;;;;;8.93;8.10;;;;;;;;;;5073334;28;20211;-53
2022/05/25 01:09:38;;;;;;;9.13;8.33;;;;;;;;;;5073046;28;20203;-52
2022/05/25 01:12:11;;;;;;;9.00;8.20;;;;;;;;;;5073092;28;20206;-52
2022/05/25 01:14:45;;;;;;;11.07;8.63;;;;;;;;;;5072749;28;20602;-52
2022/05/25 01:17:13;;;;;;;8.67;7.93;;;;;;;;;;5072726;28;20666;-52
2022/05/25 01:19:56;;;;;;;9.80;9.00;;;;;;;;;;5072784;28;20244;-52
2022/05/25 01:22:30;;;;;;;9.90;9.00;;;;;;;;;;5072656;28;20685;-52
2022/05/25 01:25:03;;;;;;;9.27;8.47;;;;;;;;;;5072680;28;20238;-52
2022/05/25 01:27:32;;;;;;;9.53;8.63;;;;;;;;;;5072898;28;20249;-52
2022/05/25 01:30:12;;;;;;;10.80;9.80;;;;;;;;;;5072809;28;20257;-52
2022/05/25 01:32:46;;;;;;;10.73;9.63;;;;;;;;;;5072592;28;20192;-52
2022/05/25 01:35:19;;;;;;;11.63;10.57;;;;;;;;;;5072656;28;20241;-52
2022/05/25 01:37:46;;;;;;;10.03;9.03;;;;;;;;;;5071579;28;20228;-52
2022/05/25 01:40:15;;;;;;;10.40;9.40;;;;;;;;;;5072665;28;20231;-52
2022/05/25 01:42:44;;;;;;;8.97;8.27;;;;;;;;;;5072413;28;20195;-52
2022/05/25 01:45:15;;;;;;;9.03;8.23;;;;;;;;;;5072416;28;20203;-52
2022/05/25 01:47:44;;;;;;;12.23;8.73;;;;;;;;;;5072134;28;20723;-52
2022/05/25 01:50:11;;;;;;;9.43;8.03;;;;;;;;;;5072309;28;20210;-52
2022/05/25 01:52:40;;;;;;;8.90;8.10;;;;;;;;;;5072091;28;20196;-52
2022/05/25 01:55:08;;;;;;;8.20;7.40;;;;;;;;;;5072300;28;20538;-52
2022/05/25 01:57:37;;;;;;;10.87;8.50;;;;;;;;;;5072104;28;20318;-52
2022/05/25 02:00:03;;;;;;;9.07;8.20;;;;;;;;;;5072032;28;20195;-52
2022/05/25 02:05:16;;;;;;;9.00;7.90;;;;;;;;;;5072142;28;20245;-50
2022/05/25 02:07:49;;;;;;;9.00;8.20;;;;;;;;;;5071971;28;20187;-50
2022/05/25 02:10:20;;;;;;;10.10;8.73;;;;;;;;;;5072206;28;20286;-51
2022/05/25 02:13:04;;;;;;;8.43;7.73;;;;;;;;;;5071852;28;20642;-51
2022/05/25 02:15:36;;;;;;;8.63;7.83;;;;;;;;;;5061661;28;20239;-50
2022/05/25 02:18:07;;;;;;;8.43;7.53;;;;;;;;;;5072080;28;20319;-50
2022/05/25 02:20:37;;;;;;;8.70;7.90;;;;;;;;;;5072156;28;20560;-51
2022/05/25 02:23:05;;;;;;;9.00;8.20;;;;;;;;;;5071904;28;20195;-50
2022/05/25 02:25:32;;;;;;;8.57;7.77;;;;;;;;;;5071816;28;20223;-52
2022/05/25 02:28:03;;;;;;;9.60;8.70;;;;;;;;;;5071036;28;20207;-52
2022/05/25 02:30:30;;;;;;;10.17;8.63;;;;;;;;;;5071692;28;20199;-51
2022/05/25 02:33:00;;;;;;;8.70;7.80;;;;;;;;;;5071545;28;20203;-51
2022/05/25 02:35:28;;;;;;;8.73;7.93;;;;;;;;;;5071720;28;20636;-52
2022/05/25 02:37:57;;;;;;;8.50;7.70;;;;;;;;;;5071428;28;20220;-52
2022/05/25 02:40:23;;;;;;;8.27;7.53;;;;;;;;;;5071662;28;20226;-51
2022/05/25 02:42:49;;;;;;;9.20;8.40;;;;;;;;;;5071585;28;20199;-51
2022/05/25 02:45:15;;;;;;;9.73;8.73;;;;;;;;;;5071833;28;20211;-52
2022/05/25 02:47:41;;;;;;;10.27;9.37;;;;;;;;;;5071969;28;20650;-51
2022/05/25 02:50:08;;;;;;;10.27;9.30;;;;;;;;;;5075674;28;20198;-52
2022/05/25 02:52:35;;;;;;;9.63;8.73;;;;;;;;;;5075395;28;20200;-52
2022/05/25 02:55:01;;;;;;;10.17;9.17;;;;;;;;;;5075518;28;20233;-52
2022/05/25 02:57:27;;;;;;;9.77;8.77;;;;;;;;;;5075389;28;20298;-52
2022/05/25 02:59:53;;;;;;;10.07;9.03;;;;;;;;;;5075200;28;20646;-52
2022/05/25 03:02:19;;;;;;;10.07;8.97;;;;;;;;;;5075315;28;20646;-52
2022/05/25 03:04:45;;;;;;;10.23;9.23;;;;;;;;;;5075083;28;20199;-51
2022/05/25 03:07:12;;;;;;;10.43;9.53;;;;;;;;;;5075183;28;20247;-51
2022/05/25 03:09:40;;;;;;;9.33;8.43;;;;;;;;;;5075196;28;20253;-51
2022/05/25 03:12:07;;;;;;;10.70;9.63;;;;;;;;;;5075017;28;20203;-51
2022/05/25 03:14:33;;;;;;;9.80;8.87;;;;;;;;;;5074965;28;20325;-51
2022/05/25 03:17:05;;;;;;;10.00;9.00;;;;;;;;;;5075207;28;20203;-51
2022/05/25 03:19:31;;;;;;;9.67;8.77;;;;;;;;;;5075083;28;20207;-51
2022/05/25 03:21:56;;;;;;;9.33;8.43;;;;;;;;;;5074603;28;20199;-51
2022/05/25 03:24:22;;;;;;;10.87;9.87;;;;;;;;;;5074795;28;20486;-51
2022/05/25 03:26:50;;;;;;;9.43;8.53;;;;;;;;;;5074638;28;20208;-51
2022/05/25 03:29:18;;;;;;;9.70;8.83;;;;;;;;;;5074933;28;20207;-51
2022/05/25 03:31:44;;;;;;;9.10;8.20;;;;;;;;;;5074881;28;20195;-51
2022/05/25 03:34:10;;;;;;;9.60;8.67;;;;;;;;;;5074781;28;20230;-51
2022/05/25 03:36:36;;;;;;;9.20;8.27;;;;;;;;;;5074577;28;20592;-51
2022/05/25 03:39:02;;;;;;;9.57;8.70;;;;;;;;;;5074479;28;20778;-49
2022/05/25 03:41:28;;;;;;;9.30;8.40;;;;;;;;;;5074491;28;20721;-50
2022/05/25 03:43:55;;;;;;;9.97;8.83;;;;;;;;;;5074326;28;20233;-50
2022/05/25 03:46:21;;;;;;;9.80;8.90;;;;;;;;;;5074561;28;20696;-51
2022/05/25 03:48:47;;;;;;;8.70;7.90;;;;;;;;;;5074432;28;20242;-50
2022/05/25 03:51:13;;;;;;;9.30;8.40;;;;;;;;;;5074564;28;20224;-50
2022/05/25 03:53:40;;;;;;;9.57;8.67;;;;;;;;;;5074348;28;20725;-50
2022/05/25 03:56:07;;;;;;;9.30;8.47;;;;;;;;;;5074373;28;20203;-50
2022/05/25 03:58:33;;;;;;;9.90;8.90;;;;;;;;;;5074237;28;20230;-50
2022/05/25 04:01:00;;;;;;;8.57;7.83;;;;;;;;;;5073441;28;20206;-50
2022/05/25 04:03:26;;;;;;;9.17;8.23;;;;;;;;;;5074321;28;20198;-49
2022/05/25 04:05:52;;;;;;;9.10;8.20;;;;;;;;;;5074169;28;20199;-50
2022/05/25 04:08:18;;;;;;;8.23;7.53;;;;;;;;;;5074076;28;20180;-50
2022/05/25 04:10:44;;;;;;;8.57;7.77;;;;;;;;;;5074115;28;20624;-50
2022/05/25 04:13:10;;;;;;;9.00;8.20;;;;;;;;;;5074200;28;20214;-51
2022/05/25 04:15:36;;;;;;;9.40;8.60;;;;;;;;;;5073839;28;20236;-51
2022/05/25 04:18:04;;;;;;;9.37;7.77;;;;;;;;;;5073928;28;20223;-51
2022/05/25 04:20:32;;;;;;;9.63;8.70;;;;;;;;;;5074013;28;20204;-51
2022/05/25 04:22:58;;;;;;;8.57;7.77;;;;;;;;;;5073801;28;20278;-51
2022/05/25 04:25:25;;;;;;;7.83;7.10;;;;;;;;;;5073421;28;20226;-50
2022/05/25 04:27:52;;;;;;;10.73;7.60;;;;;;;;;;5073439;28;20333;-51
2022/05/25 04:30:19;;;;;;;9.00;8.13;;;;;;;;;;5073407;28;20202;-51
2022/05/25 04:32:45;;;;;;;8.80;8.00;;;;;;;;;;5073650;28;20623;-50
2022/05/25 04:35:13;;;;;;;8.23;7.47;;;;;;;;;;5073659;28;20196;-51
2022/05/25 04:37:57;;;;;;;15.40;8.00;;;;;;;;;;5073229;28;20277;-50
2022/05/25 04:40:26;;;;;;;8.23;7.17;;;;;;;;;;5073445;28;20199;-50
2022/05/25 04:42:52;;;;;;;9.73;8.43;;;;;;;;;;5073272;28;20375;-53
2022/05/25 04:45:18;;;;;;;8.17;7.43;;;;;;;;;;5073522;28;20249;-50
2022/05/25 04:47:44;;;;;;;8.03;7.33;;;;;;;;;;5073480;28;20205;-52
2022/05/25 04:50:11;;;;;;;8.57;7.67;;;;;;;;;;5073323;28;20270;-53
2022/05/25 04:52:39;;;;;;;8.70;7.80;;;;;;;;;;5073185;28;20716;-52
2022/05/25 04:55:06;;;;;;;7.87;7.17;;;;;;;;;;5073312;28;20210;-50
2022/05/25 04:57:32;;;;;;;7.97;7.27;;;;;;;;;;5073164;28;20227;-51
2022/05/25 04:59:59;;;;;;;7.60;6.57;;;;;;;;;;5073134;28;20210;-51
2022/05/25 05:02:25;;;;;;;10.27;8.17;;;;;;;;;;5073064;28;20223;-51
2022/05/25 05:04:51;;;;;;;8.90;7.50;;;;;;;;;;5072811;28;20287;-51
2022/05/25 05:07:17;;;;;;;8.17;7.40;;;;;;;;;;5072834;28;20722;-51
2022/05/25 05:09:46;;;;;;;8.00;7.20;;;;;;;;;;5072834;28;20192;-51
2022/05/25 05:12:14;;;;;;;8.37;7.57;;;;;;;;;;5072739;28;20196;-51
2022/05/25 05:14:42;;;;;;;8.03;7.27;;;;;;;;;;5072544;28;20232;-51
2022/05/25 05:17:08;;;;;;;11.20;7.73;;;;;;;;;;5072610;28;20199;-52
2022/05/25 05:19:34;;;;;;;9.07;8.17;;;;;;;;;;5072450;28;20228;-51
2022/05/25 05:22:00;;;;;;;9.40;8.40;;;;;;;;;;5072534;28;20199;-51
2022/05/25 05:24:26;;;;;;;9.50;8.53;;;;;;;;;;5072537;28;20586;-52
2022/05/25 05:26:54;;;;;;;7.97;7.13;;;;;;;;;;5072517;28;20730;-52
2022/05/25 05:29:20;;;;;;;8.13;7.33;;;;;;;;;;5072665;28;20195;-51
2022/05/25 05:31:46;;;;;;;8.53;7.73;;;;;;;;;;5072407;28;20196;-52
2022/05/25 05:34:12;;;;;;;8.43;7.70;;;;;;;;;;5072186;28;20724;-51
2022/05/25 05:36:41;;;;;;;7.73;7.00;;;;;;;;;;5072213;28;20202;-52
2022/05/25 05:39:08;;;;;;;9.70;8.27;;;;;;;;;;5072135;28;20673;-52
2022/05/25 05:41:36;;;;;;;8.43;7.73;;;;;;;;;;5072395;28;20671;-52
2022/05/25 05:44:04;;;;;;;10.10;8.60;;;;;;;;;;5072323;28;20216;-52
2022/05/25 05:46:30;;;;;;;9.47;8.43;;;;;;;;;;5072265;28;20204;-51
2022/05/25 05:48:56;;;;;;;9.00;8.10;;;;;;;;;;5071902;28;20726;-52
2022/05/25 05:51:22;;;;;;;9.60;8.63;;;;;;;;;;5072101;28;20197;-51
2022/05/25 05:53:48;;;;;;;9.83;8.93;;;;;;;;;;5072005;28;20207;-52
2022/05/25 05:56:15;;;;;;;9.27;7.90;;;;;;;;;;5072093;28;20610;-52
2022/05/25 05:58:41;;;;;;;10.13;8.93;;;;;;;;;;5071982;28;20223;-52
2022/05/25 06:01:09;;;;;;;9.90;8.93;;;;;;;;;;5071943;28;20249;-52
2022/05/25 06:03:35;;;;;;;9.73;8.37;;;;;;;;;;5072144;28;20304;-52
2022/05/25 06:06:01;;;;;;;9.33;8.43;;;;;;;;;;5071999;28;20222;-51
2022/05/25 06:08:29;;;;;;;9.57;8.63;;;;;;;;;;5072105;28;20195;-52
2022/05/25 06:10:56;;;;;;;10.03;9.03;;;;;;;;;;5071882;28;20282;-51
2022/05/25 06:13:22;;;;;;;12.00;8.67;;;;;;;;;;5071871;28;20195;-52
2022/05/25 06:21:20;;;;;;;9.23;8.33;;;;;;;;;;5071745;28;20245;-51
2022/05/25 06:23:46;;;;;;;10.30;9.30;;;;;;;;;;5071269;28;20198;-52
2022/05/25 06:26:14;;;;;;;9.80;8.90;;;;;;;;;;5071687;28;20705;-51
2022/05/25 06:28:40;;;;;;;9.83;8.93;;;;;;;;;;5071573;28;20242;-52
2022/05/25 06:31:06;;;;;;;10.67;9.50;;;;;;;;;;5071235;28;20207;-52
2022/05/25 06:33:32;;;;;;;10.50;9.43;;;;;;;;;;5071662;28;20696;-52
2022/05/25 06:36:12;;;;;;;10.00;8.73;;;;;;;;;;5071274;28;20203;-52
2022/05/25 06:38:38;;;;;;;9.73;8.57;;;;;;;;;;5071638;28;20230;-52
2022/05/25 06:41:04;;;;;;;10.40;8.83;;;;;;;;;;5071182;28;20200;-52
2022/05/25 06:43:30;;;;;;;11.80;9.03;;;;;;;;;;5071364;28;20609;-52
2022/05/25 06:45:56;;;;;;;10.20;9.20;;;;;;;;;;5071481;28;20253;-52
2022/05/25 06:48:22;;;;;;;10.30;9.10;;;;;;;;;;5071538;28;20195;-52
2022/05/25 06:50:47;;;;;;;9.20;8.30;;;;;;;;;;5071119;28;20201;-52
2022/05/25 06:53:15;;;;;;;9.93;8.27;;;;;;;;;;5071691;28;20563;-52
2022/05/25 06:55:41;;;;;;;9.17;8.27;;;;;;;;;;5071349;28;20289;-53
2022/05/25 06:58:07;;;;;;;8.47;7.50;;;;;;;;;;5071446;28;20265;-52
2022/05/25 07:00:33;;;;;;;10.23;8.47;;;;;;;;;;5071497;28;20611;-52
2022/05/25 07:03:02;;;;;;;9.10;8.23;;;;;;;;;;5071484;28;20199;-53
2022/05/25 07:05:28;;;;;;;8.73;7.43;;;;;;;;;;5071375;28;20199;-52
2022/05/25 07:07:54;;;;;;;10.07;7.43;;;;;;;;;;5071258;28;20207;-53
2022/05/25 07:10:21;;;;;;;9.67;7.10;;;;;;;;;;5071287;28;20195;-52
2022/05/25 07:12:47;;;;;;;7.93;6.53;;;;;;;;;;5071211;28;20198;-52
2022/05/25 07:15:13;;;;;;;8.30;7.20;;;;;;;;;;5071319;28;20610;-52
2022/05/25 07:17:40;;;;;;;7.10;6.40;;;;;;;;;;5071148;28;20199;-52
2022/05/25 07:20:09;;;;;;;7.80;6.47;;;;;;;;;;5071140;28;20220;-54
2022/05/25 07:22:35;;;;;;;6.77;6.07;;;;;;;;;;5071028;28;20202;-54
2022/05/25 07:25:01;;;;;;;6.90;6.27;;;;;;;;;;5071060;28;20215;-52
2022/05/25 07:27:29;;;;;;;6.87;6.10;;;;;;;;;;5071089;28;20206;-54
2022/05/25 07:29:55;;;;;;;6.73;5.70;;;;;;;;;;5071067;28;20207;-53
2022/05/25 07:32:22;;;;;;;6.30;5.67;;;;;;;;;;5071034;28;20196;-52
2022/05/25 07:34:50;;;;;;;5.80;5.13;;;;;;;;;;5071625;28;20200;-52
2022/05/25 07:37:19;;;;;;;6.20;5.60;;;;;;;;;;5074526;28;20839;-52
2022/05/25 07:39:48;;;;;;;6.27;5.00;;;;;;;;;;5074523;28;20318;-52
2022/05/25 07:42:14;;;;;;;5.83;4.20;;;;;;;;;;5074701;28;20615;-52
2022/05/25 07:44:43;;;;;;;5.53;4.27;;;;;;;;;;5074375;28;20196;-52
2022/05/25 07:47:09;;;;;;;4.10;3.17;;;;;;;;;;5074571;28;20206;-52
2022/05/25 07:49:35;;;;;;;5.80;3.10;;;;;;;;;;5074271;28;20191;-53
2022/05/25 07:52:01;;;;;;;3.60;3.10;;;;;;;;;;5074457;28;20207;-52
2022/05/25 07:54:27;;;;;;;4.40;3.00;;;;;;;;;;5074603;28;20245;-52
2022/05/25 07:56:55;;;;;;;2.60;2.40;;;;;;;;;;5074496;28;20210;-52
2022/05/25 07:59:21;;;;;;;4.27;3.10;;;;;;;;;;5074143;28;20835;-53
2022/05/25 08:07:23;;;;;;;3.07;2.40;;;;;;;;;;5074226;28;20397;-54
2022/05/25 08:09:51;;;;;;;5.23;3.00;;;;;;;;;;5074144;28;20199;-56
2022/05/25 08:12:17;;;;;;;4.37;2.80;;;;;;;;;;5074196;28;20205;-56
2022/05/25 08:14:43;;;;;;;4.90;2.63;;;;;;;;;;5073982;28;20233;-55
2022/05/25 08:17:11;;;;;;;4.17;2.50;;;;;;;;;;5074312;28;20267;-55
2022/05/25 08:19:38;;;;;;;2.90;2.10;;;;;;;;;;5073969;28;20226;-56
2022/05/25 08:22:04;;;;;;;2.40;2.20;;;;;;;;;;5073741;28;20205;-56
2022/05/25 08:24:31;;;;;;;2.97;2.00;;;;;;;;;;5074084;28;20259;-57
2022/05/25 08:26:57;;;;;;;2.97;2.30;;;;;;;;;;5073660;28;20203;-56
2022/05/25 08:29:25;;;;;;;5.07;2.20;;;;;;;;;;5073345;28;20689;-55
2022/05/25 08:31:53;;;;;;;2.50;1.80;;;;;;;;;;5073632;28;20211;-55
2022/05/25 08:34:20;;;;;;;2.90;2.10;;;;;;;;;;5073619;28;20199;-56
2022/05/25 08:36:46;;;;;;;3.40;2.00;;;;;;;;;;5073313;28;20221;-56
2022/05/25 08:39:12;;;;;;;3.17;1.83;;;;;;;;;;5073723;28;20233;-55
2022/05/25 08:41:39;;;;;;;2.40;1.70;;;;;;;;;;5073299;28;20202;-55
2022/05/25 08:44:07;;;;;;;3.00;1.90;;;;;;;;;;5073568;28;20217;-55
2022/05/25 08:46:33;;;;;;;2.13;1.93;;;;;;;;;;5073055;28;20206;-56
2022/05/25 08:49:01;;;;;;;3.93;2.60;;;;;;;;;;5073596;28;20748;-55
2022/05/25 08:51:30;;;;;;;3.07;2.50;;;;;;;;;;5073212;28;20686;-56
2022/05/25 08:53:56;;;;;;;4.67;2.33;;;;;;;;;;5072985;28;20207;-56
2022/05/25 08:56:26;;;;;;;4.93;2.00;;;;;;;;;;5073007;28;20236;-56
2022/05/25 08:58:55;;;;;;;3.00;2.40;;;;;;;;;;5072791;28;20233;-55
2022/05/25 09:01:25;;;;;;;2.67;2.30;;;;;;;;;;5072998;28;20460;-54
2022/05/25 09:03:55;;;;;;;5.00;3.10;;;;;;;;;;5072883;28;20233;-55
2022/05/25 09:06:28;;;;;;;3.43;3.10;;;;;;;;;;5072827;28;20558;-56
2022/05/25 09:09:00;;;;;;;5.80;3.60;;;;;;;;;;5072686;28;20719;-55
2022/05/25 09:11:28;;;;;;;4.07;2.60;;;;;;;;;;5072929;28;20183;-56
2022/05/25 09:13:56;;;;;;;8.37;2.57;;;;;;;;;;5072507;28;20239;-56
2022/05/25 09:16:23;;;;;;;3.97;3.20;;;;;;;;;;5072798;28;20206;-55
2022/05/25 09:18:55;;;;;;;2.90;2.37;;;;;;;;;;5072507;28;20258;-55
2022/05/25 09:21:22;;;;;;;4.47;2.50;;;;;;;;;;5072570;28;20277;-55
2022/05/25 09:23:50;;;;;;;2.97;2.20;;;;;;;;;;5072318;28;20195;-55
2022/05/25 09:26:17;;;;;;;2.20;2.00;;;;;;;;;;5072614;28;20319;-56
2022/05/25 09:28:47;;;;;;;2.40;2.20;;;;;;;;;;5072385;28;20202;-57
2022/05/25 09:31:16;;;;;;;2.97;2.40;;;;;;;;;;5072565;28;20274;-56
2022/05/25 09:33:46;;;;;;;2.87;2.57;;;;;;;;;;5070252;28;20237;-56
2022/05/25 09:36:15;;;;;;;3.43;2.30;;;;;;;;;;5072451;28;20203;-55
2022/05/25 09:38:44;;;;;;;4.10;2.27;;;;;;;;;;5072478;28;20254;-56
2022/05/25 09:41:12;;;;;;;4.30;1.97;;;;;;;;;;5072564;28;20204;-55
2022/05/25 09:43:40;;;;;;;4.70;2.90;;;;;;;;;;5072362;28;20195;-56
2022/05/25 09:46:08;;;;;;;5.10;2.20;;;;;;;;;;5072365;28;20681;-55
2022/05/25 09:48:37;;;;;;;2.60;1.90;;;;;;;;;;5072472;28;20219;-55
2022/05/25 09:51:06;;;;;;;2.47;1.87;;;;;;;;;;5072123;28;20206;-56
2022/05/25 09:53:35;;;;;;;3.13;2.77;;;;;;;;;;5072425;28;20243;-56
2022/05/25 09:56:06;;;;;;;3.17;2.20;;;;;;;;;;5072259;28;20242;-56
2022/05/25 09:58:34;;;;;;;5.83;2.67;;;;;;;;;;5071892;28;20227;-56
2022/05/25 10:01:05;;;;;;;4.77;2.50;;;;;;;;;;5072425;28;20204;-56
2022/05/25 10:03:35;;;;;;;4.20;2.30;;;;;;;;;;5072413;28;20201;-56
2022/05/25 10:06:16;;;;;;;6.00;2.50;;;;;;;;;;5072042;28;20294;-55
2022/05/25 10:08:42;;;;;;;2.87;2.40;;;;;;;;;;5072027;28;20668;-55
2022/05/25 10:11:09;;;;;;;4.43;2.77;;;;;;;;;;5072256;28;20290;-55
2022/05/25 10:13:38;;;;;;;3.80;2.53;;;;;;;;;;5071884;28;20191;-55
2022/05/25 10:16:19;;;;;;;3.50;2.50;;;;;;;;;;5072140;28;20227;-55
2022/05/25 10:18:48;;;;;;;3.23;2.83;;;;;;;;;;5071893;28;20318;-55
2022/05/25 10:21:21;;;;;;;2.30;1.87;;;;;;;;;;5072094;28;20195;-54
2022/05/25 10:23:47;;;;;;;5.17;2.50;;;;;;;;;;5071999;28;20201;-54
2022/05/25 10:26:17;;;;;;;2.90;1.90;;;;;;;;;;5071973;28;20307;-55
2022/05/25 10:28:46;;;;;;;4.17;2.83;;;;;;;;;;5071902;28;20191;-54
2022/05/25 10:36:55;;;;;;;3.93;1.87;;;;;;;;;;5050078;28;20583;-55
2022/05/25 10:39:24;;;;;;;2.20;1.70;;;;;;;;;;5071824;28;20227;-54
2022/05/25 10:42:00;;;;;;;8.53;1.93;;;;;;;;;;5071830;28;20203;-54
2022/05/25 10:44:27;;;;;;;4.13;2.10;;;;;;;;;;5072002;28;20205;-54
2022/05/25 10:46:57;;;;;;;4.03;2.33;;;;;;;;;;5071740;28;20191;-54
2022/05/25 10:49:25;;;;;;;2.03;1.83;;;;;;;;;;5071883;28;20211;-55
2022/05/25 10:51:53;;;;;;;2.60;1.90;;;;;;;;;;5071658;28;20611;-55
2022/05/25 10:57:18;;;;;;;2.17;1.80;;;;;;;;;;5071643;28;20194;-54
2022/05/25 10:59:50;;;;;;;2.20;2.00;;;;;;;;;;5071640;28;20222;-54
2022/05/25 11:02:27;;;;;;;4.97;1.90;;;;;;;;;;5071826;28;20211;-54
2022/05/25 11:05:07;;;;;;;2.00;1.83;;;;;;;;;;5071612;28;20199;-54
2022/05/25 11:07:34;;;;;;;2.87;1.60;;;;;;;;;;5071380;28;20629;-54
2022/05/25 11:10:09;;;;;;;3.00;1.50;;;;;;;;;;5073911;28;20199;-54
2022/05/25 11:12:40;;;;;;;3.47;1.80;;;;;;;;;;5070992;28;20207;-54
2022/05/25 11:15:13;;;;;;;2.73;1.60;;;;;;;;;;5074246;28;20235;-53
2022/05/25 11:17:47;;;;;;;3.27;1.67;;;;;;;;;;5075390;28;20199;-53
2022/05/25 11:20:24;;;;;;;1.80;1.50;;;;;;;;;;5074977;28;20204;-53
2022/05/25 11:22:59;;;;;;;5.67;1.40;;;;;;;;;;5074907;28;20207;-53
2022/05/25 11:25:30;;;;;;;2.77;1.40;;;;;;;;;;5073077;28;20226;-55
2022/05/25 11:28:08;;;;;;;3.70;1.60;;;;;;;;;;5074391;28;20218;-54
2022/05/25 11:30:37;;;;;;;2.53;1.43;;;;;;;;;;5075094;28;20230;-56
2022/05/25 11:33:13;;;;;;;4.67;1.40;;;;;;;;;;5074631;28;20225;-56
2022/05/25 11:35:45;;;;;;;3.10;1.40;;;;;;;;;;5074705;28;20234;-56
2022/05/25 11:38:17;;;;;;;2.47;1.80;;;;;;;;;;5071944;28;20227;-55
2022/05/25 11:40:47;;;;;;;2.90;1.60;;;;;;;;;;5073223;28;20226;-56
2022/05/25 11:43:27;;;;;;;2.20;1.60;;;;;;;;;;5073822;28;20238;-56
2022/05/25 11:45:57;;;;;;;3.70;1.50;;;;;;;;;;5073531;28;20287;-56
2022/05/25 11:48:31;;;;;;;1.93;1.50;;;;;;;;;;5073540;28;20343;-56
2022/05/25 11:51:02;;;;;;;2.30;1.37;;;;;;;;;;5073379;28;20195;-56
2022/05/25 11:53:35;;;;;;;1.83;1.30;;;;;;;;;;5073987;28;20257;-58
2022/05/25 11:56:06;;;;;;;2.57;1.10;;;;;;;;;;5074127;28;20196;-56
2022/05/25 11:58:39;;;;;;;3.90;1.30;;;;;;;;;;5074063;28;20658;-56
2022/05/25 12:01:06;;;;;;;2.43;1.43;;;;;;;;;;5074065;28;20681;-56
2022/05/25 12:03:44;;;;;;;2.43;1.43;;;;;;;;;;5073902;28;20720;-56
2022/05/25 12:06:17;;;;;;;1.50;1.20;;;;;;;;;;5073790;28;20731;-56
2022/05/25 12:08:49;;;;;;;1.93;1.13;;;;;;;;;;5074003;28;20195;-55
2022/05/25 12:11:23;;;;;;;1.70;1.20;;;;;;;;;;5074133;28;20731;-55
2022/05/25 12:13:52;;;;;;;2.03;1.37;;;;;;;;;;5073644;28;20722;-56
2022/05/25 12:16:21;;;;;;;5.00;1.10;;;;;;;;;;5073629;28;20218;-56
2022/05/25 12:18:53;;;;;;;3.03;1.40;;;;;;;;;;5073547;28;20223;-56
2022/05/25 12:21:20;;;;;;;2.17;1.43;;;;;;;;;;5072845;28;20207;-56
2022/05/25 12:23:49;;;;;;;1.80;1.30;;;;;;;;;;5073634;28;20203;-56
2022/05/25 12:26:18;;;;;;;3.30;1.30;;;;;;;;;;5073529;28;20755;-58
2022/05/25 12:28:45;;;;;;;1.77;1.17;;;;;;;;;;5073599;28;20609;-57
2022/05/25 12:31:13;;;;;;;2.03;1.50;;;;;;;;;;5073449;28;20719;-57
2022/05/25 12:33:42;;;;;;;1.90;1.20;;;;;;;;;;5073597;28;20196;-57
2022/05/25 12:36:10;;;;;;;2.20;1.27;;;;;;;;;;5073125;28;20223;-56
2022/05/25 12:38:37;;;;;;;2.80;1.10;;;;;;;;;;5073218;28;20254;-57
2022/05/25 12:41:24;;;;;;;2.27;1.10;;;;;;;;;;5073045;28;20257;-54
2022/05/25 12:43:52;;;;;;;2.13;1.17;;;;;;;;;;5073086;28;20210;-57
2022/05/25 12:49:30;;;;;;;3.27;1.00;;;;;;;;;;5072950;28;20668;-56
2022/05/25 12:51:57;;;;;;;2.00;1.33;;;;;;;;;;5072964;28;20200;-56
2022/05/25 12:54:24;;;;;;;1.63;0.93;;;;;;;;;;5073001;28;20203;-56
2022/05/25 12:56:51;;;;;;;3.27;1.10;;;;;;;;;;5072878;28;20207;-56
2022/05/25 12:59:26;;;;;;;1.33;1.07;;;;;;;;;;5072836;28;20228;-56
2022/05/25 13:02:07;;;;;;;2.97;1.00;;;;;;;;;;5072648;28;20270;-57
2022/05/25 13:04:42;;;;;;;1.50;1.10;;;;;;;;;;5072836;28;20200;-55
2022/05/25 13:07:20;;;;;;;1.63;1.23;;;;;;;;;;5072741;28;20223;-55
2022/05/25 13:09:46;;;;;;;4.20;1.63;;;;;;;;;;5072956;28;20282;-56
2022/05/25 13:12:30;;;;;;;3.23;1.37;;;;;;;;;;5072695;28;20238;-55
2022/05/25 13:14:56;;;;;;;2.40;1.13;;;;;;;;;;5072407;28;20231;-57
2022/05/25 13:17:43;;;;;;;2.43;0.93;;;;;;;;;;5072403;28;20672;-56
2022/05/25 13:20:13;;;;;;;2.10;1.00;;;;;;;;;;5072089;28;20233;-56
2022/05/25 13:22:41;;;;;;;1.20;1.10;;;;;;;;;;5072416;28;20253;-56
2022/05/25 13:25:11;;;;;;;1.70;1.23;;;;;;;;;;5072300;28;20281;-57
2022/05/25 13:27:57;;;;;;;2.73;1.40;;;;;;;;;;5072617;28;20215;-56
2022/05/25 13:30:28;;;;;;;1.23;1.13;;;;;;;;;;5072713;28;20863;-56
2022/05/25 13:32:55;;;;;;;1.57;1.17;;;;;;;;;;5071334;28;20203;-56
2022/05/25 13:35:43;;;;;;;1.27;1.10;;;;;;;;;;5072091;28;20199;-56
2022/05/25 13:38:16;;;;;;;2.80;1.40;;;;;;;;;;5067293;28;20676;-57
2022/05/25 13:40:45;;;;;;;2.50;1.30;;;;;;;;;;5072618;28;20321;-56
2022/05/25 13:43:13;;;;;;;2.87;1.10;;;;;;;;;;5072177;28;20395;-57
2022/05/25 13:45:40;;;;;;;4.40;1.27;;;;;;;;;;5072554;28;20195;-57
2022/05/25 13:48:09;;;;;;;1.60;1.20;;;;;;;;;;5072303;28;20245;-56
2022/05/25 13:50:37;;;;;;;3.47;1.50;;;;;;;;;;5072190;28;20217;-56
2022/05/25 13:53:06;;;;;;;1.67;1.30;;;;;;;;;;5072405;28;20219;-57
2022/05/25 13:55:35;;;;;;;3.70;1.43;;;;;;;;;;5072334;28;20203;-57
2022/05/25 13:58:02;;;;;;;3.83;1.37;;;;;;;;;;5071984;28;20206;-57
2022/05/25 14:00:36;;;;;;;4.83;1.67;;;;;;;;;;5072268;28;20610;-57
2022/05/25 14:03:03;;;;;;;1.97;1.13;;;;;;;;;;5072029;28;20203;-57
2022/05/25 14:05:31;;;;;;;3.03;1.30;;;;;;;;;;5072180;28;20206;-56
2022/05/25 14:08:05;;;;;;;2.03;1.23;;;;;;;;;;5072044;28;20677;-54
2022/05/25 14:13:19;;;;;;;1.77;1.40;;;;;;;;;;5072106;28;20226;-55
2022/05/25 14:15:55;;;;;;;2.87;1.60;;;;;;;;;;5071768;28;20242;-54
2022/05/25 14:18:21;;;;;;;1.70;1.30;;;;;;;;;;5071681;28;20223;-54
2022/05/25 14:20:47;;;;;;;3.13;1.60;;;;;;;;;;5071788;28;20243;-55
2022/05/25 14:23:13;;;;;;;2.30;1.37;;;;;;;;;;5071998;28;20645;-55
2022/05/25 14:25:40;;;;;;;3.53;1.20;;;;;;;;;;5071634;28;20642;-55
2022/05/25 14:28:06;;;;;;;3.83;1.40;;;;;;;;;;5071734;28;20285;-56
2022/05/25 14:30:35;;;;;;;3.97;1.40;;;;;;;;;;5071764;28;20771;-56
2022/05/25 14:33:06;;;;;;;2.30;1.30;;;;;;;;;;5071740;28;20278;-56
2022/05/25 14:35:33;;;;;;;1.70;1.20;;;;;;;;;;5071736;28;20199;-56
2022/05/25 14:38:01;;;;;;;2.10;1.17;;;;;;;;;;5071875;28;20616;-56
2022/05/25 14:40:27;;;;;;;1.13;0.97;;;;;;;;;;5071577;28;20284;-56
2022/05/25 14:42:54;;;;;;;1.60;1.17;;;;;;;;;;5071686;28;20222;-56
2022/05/25 14:45:21;;;;;;;2.13;1.07;;;;;;;;;;5075379;28;20646;-56
2022/05/25 14:47:49;;;;;;;3.50;1.20;;;;;;;;;;5075873;28;20568;-57
2022/05/25 14:50:17;;;;;;;2.00;1.50;;;;;;;;;;5075676;28;20207;-56
2022/05/25 14:52:45;;;;;;;2.30;1.20;;;;;;;;;;5075913;28;20225;-56
2022/05/25 14:55:17;;;;;;;1.30;1.20;;;;;;;;;;5075577;28;20245;-56
2022/05/25 14:57:43;;;;;;;2.03;1.00;;;;;;;;;;5075690;28;20563;-56
2022/05/25 15:00:12;;;;;;;1.13;1.03;;;;;;;;;;5075278;28;20219;-56
2022/05/25 15:02:39;;;;;;;1.73;1.00;;;;;;;;;;5075388;28;20191;-54
2022/05/25 15:05:23;;;;;;;1.67;1.30;;;;;;;;;;5075226;28;20607;-55
2022/05/25 15:07:51;;;;;;;1.57;1.00;;;;;;;;;;5075085;28;20211;-54
2022/05/25 15:10:18;;;;;;;1.13;1.00;;;;;;;;;;5075127;28;20192;-54
2022/05/25 15:12:44;;;;;;;1.83;1.30;;;;;;;;;;5075317;28;20200;-53
2022/05/25 15:18:36;;;;;;;1.23;1.00;;;;;;;;;;5075527;28;20275;-53
2022/05/25 15:21:16;;;;;;;1.80;1.00;;;;;;;;;;5075014;28;20697;-54